createdAt,value
2019-04-07T00:00:09.032Z,30.33
2019-04-07T00:02:37.518Z,32.10
2019-04-07T00:05:13.066Z,30.70
2019-04-07T00:07:39.065Z,29.13
2019-04-07T00:10:09.835Z,32.67
2019-04-07T00:12:38.383Z,28.10
2019-04-07T00:15:06.999Z,28.73
2019-04-07T00:17:36.150Z,31.53
2019-04-07T00:20:07.338Z,30.93
2019-04-07T00:22:35.814Z,31.80
2019-04-07T00:25:05.201Z,30.37
2019-04-07T00:27:33.731Z,28.60
2019-04-07T00:30:02.177Z,31.33
2019-04-07T00:32:30.677Z,30.13
2019-04-07T00:34:59.071Z,32.43
2019-04-07T00:37:27.549Z,27.97
2019-04-07T00:39:56.641Z,31.67
2019-04-07T00:42:25.126Z,32.63
2019-04-07T00:44:53.525Z,31.27
2019-04-07T00:47:21.941Z,29.83
2019-04-07T00:49:51.192Z,29.67
2019-04-07T00:52:21.499Z,33.20
2019-04-07T00:54:51.318Z,31.93
2019-04-07T00:57:20.828Z,28.60
2019-04-07T00:59:49.491Z,29.40
2019-04-07T01:02:18.469Z,30.10
2019-04-07T01:04:47.259Z,30.53
2019-04-07T01:07:15.726Z,34.87
2019-04-07T01:09:44.175Z,29.00
2019-04-07T01:12:12.827Z,28.97
2019-04-07T01:14:41.747Z,33.37
2019-04-07T01:17:10.197Z,30.83
2019-04-07T01:19:38.765Z,31.30
2019-04-07T01:22:07.167Z,30.07
2019-04-07T01:24:36.383Z,33.83
2019-04-07T01:27:05.091Z,30.50
2019-04-07T01:29:34.061Z,34.47
2019-04-07T01:32:02.674Z,36.57
2019-04-07T01:34:31.543Z,35.43
2019-04-07T01:37:00.067Z,33.97
2019-04-07T01:39:28.464Z,32.30
2019-04-07T01:41:58.501Z,32.03
2019-04-07T01:44:28.536Z,28.87
2019-04-07T01:47:16.778Z,30.40
2019-04-07T01:49:49.329Z,29.97
2019-04-07T01:52:19.614Z,34.53
2019-04-07T01:55:04.953Z,32.63
2019-04-07T01:57:51.871Z,34.63
2019-04-07T02:00:25.173Z,38.03
2019-04-07T02:03:02.194Z,41.13
2019-04-07T02:05:35.325Z,42.40
2019-04-07T02:08:28.116Z,46.57
2019-04-07T02:11:05.015Z,45.73
2019-04-07T02:13:47.215Z,46.70
2019-04-07T02:16:23.514Z,49.27
2019-04-07T02:18:54.231Z,45.27
2019-04-07T02:21:30.723Z,46.23
2019-04-07T02:24:09.378Z,46.47
2019-04-07T02:26:39.446Z,48.30
2019-04-07T02:29:18.098Z,45.60
2019-04-07T02:31:48.140Z,42.47
2019-04-07T02:34:30.004Z,45.90
2019-04-07T02:37:17.386Z,47.53
2019-04-07T02:39:53.224Z,41.10
2019-04-07T02:42:29.008Z,42.37
2019-04-07T02:45:11.071Z,40.53
2019-04-07T02:47:53.261Z,37.43
2019-04-07T02:50:26.634Z,41.50
2019-04-07T02:53:07.654Z,37.60
2019-04-07T02:55:40.822Z,36.30
2019-04-07T02:58:10.858Z,34.93
2019-04-07T03:00:50.650Z,34.27
2019-04-07T03:03:37.320Z,34.23
2019-04-07T03:06:26.200Z,31.50
2019-04-07T03:09:00.128Z,31.73
2019-04-07T03:11:39.285Z,35.87
2019-04-07T03:14:09.910Z,37.30
2019-04-07T03:16:40.598Z,33.97
2019-04-07T03:19:23.526Z,39.33
2019-04-07T03:22:02.902Z,38.40
2019-04-07T03:24:39.066Z,40.13
2019-04-07T03:27:10.037Z,39.33
2019-04-07T03:29:42.605Z,35.63
2019-04-07T03:32:18.866Z,36.63
2019-04-07T03:35:05.347Z,35.63
2019-04-07T03:37:51.511Z,34.93
2019-04-07T03:40:30.586Z,33.60
2019-04-07T03:43:01.486Z,34.23
2019-04-07T03:45:38.045Z,35.70
2019-04-07T03:48:21.166Z,46.27
2019-04-07T03:50:57.271Z,41.30
2019-04-07T03:53:45.716Z,39.40
2019-04-07T03:56:22.050Z,35.93
2019-04-07T03:59:00.863Z,37.27
2019-04-07T04:01:33.981Z,41.07
2019-04-07T04:04:24.312Z,48.07
2019-04-07T04:07:17.777Z,35.63
2019-04-07T04:09:42.811Z,35.93
2019-04-07T04:12:22.697Z,39.70
2019-04-07T04:15:00.215Z,38.47
2019-04-07T04:17:28.949Z,40.47
2019-04-07T04:19:57.499Z,39.00
2019-04-07T04:22:26.071Z,38.03
2019-04-07T04:24:55.461Z,30.97
2019-04-07T04:27:24.095Z,35.70
2019-04-07T04:29:53.456Z,39.23
2019-04-07T04:32:23.158Z,43.03
2019-04-07T04:34:51.577Z,41.27
2019-04-07T04:37:34.398Z,41.13
2019-04-07T04:39:50.971Z,41.10
2019-04-07T04:42:20.436Z,43.93
2019-04-07T04:44:49.129Z,40.27
2019-04-07T04:47:17.606Z,38.33
2019-04-07T04:49:46.045Z,42.37
2019-04-07T04:52:14.531Z,42.03
2019-04-07T04:54:42.914Z,42.03
2019-04-07T04:57:11.335Z,43.53
2019-04-07T04:59:40.265Z,39.30
2019-04-07T05:02:09.044Z,41.53
2019-04-07T05:04:37.559Z,42.93
2019-04-07T05:07:05.970Z,38.93
2019-04-07T05:09:45.572Z,38.93
2019-04-07T05:12:05.827Z,38.87
2019-04-07T05:14:34.559Z,40.47
2019-04-07T05:17:02.954Z,36.70
2019-04-07T05:19:31.361Z,37.80
2019-04-07T05:21:59.878Z,39.60
2019-04-07T05:24:28.449Z,39.60
2019-04-07T05:26:57.324Z,35.33
2019-04-07T05:29:25.866Z,37.73
2019-04-07T05:31:54.410Z,38.93
2019-04-07T05:34:23.075Z,37.43
2019-04-07T05:36:52.223Z,34.03
2019-04-07T05:39:20.767Z,33.10
2019-04-07T05:41:49.238Z,34.67
2019-04-07T05:44:17.866Z,33.23
2019-04-07T05:46:49.400Z,31.87
2019-04-07T05:49:17.703Z,31.40
2019-04-07T05:51:47.124Z,29.53
2019-04-07T05:54:18.072Z,32.93
2019-04-07T05:56:45.960Z,30.03
2019-04-07T05:59:14.723Z,33.73
2019-04-07T06:01:44.546Z,29.37
2019-04-07T06:04:16.869Z,31.90
2019-04-07T06:06:43.171Z,26.60
2019-04-07T06:09:11.577Z,32.53
2019-04-07T06:11:40.142Z,31.53
2019-04-07T06:14:08.559Z,32.20
2019-04-07T06:16:37.710Z,26.70
2019-04-07T06:19:08.067Z,30.33
2019-04-07T06:21:36.636Z,27.93
2019-04-07T06:24:05.205Z,29.70
2019-04-07T06:26:34.170Z,26.47
2019-04-07T06:29:02.706Z,27.00
2019-04-07T06:31:32.189Z,26.87
2019-04-07T06:34:01.290Z,27.00
2019-04-07T06:36:29.712Z,28.00
2019-04-07T06:38:58.205Z,24.90
2019-04-07T06:41:29.487Z,24.40
2019-04-07T06:44:08.961Z,24.87
2019-04-07T06:46:28.934Z,26.70
2019-04-07T06:49:02.703Z,28.57
2019-04-07T06:51:35.830Z,26.23
2019-04-07T06:54:23.197Z,24.83
2019-04-07T06:57:05.259Z,26.17
2019-04-07T06:59:33.987Z,26.40
2019-04-07T07:02:20.824Z,24.63
2019-04-07T07:04:53.968Z,27.40
2019-04-07T07:07:41.411Z,31.10
2019-04-07T07:10:30.147Z,27.23
2019-04-07T07:13:15.591Z,28.60
2019-04-07T07:15:45.123Z,29.77
2019-04-07T07:18:15.509Z,30.37
2019-04-07T07:20:46.166Z,31.30
2019-04-07T07:23:16.954Z,36.60
2019-04-07T07:25:45.503Z,33.20
2019-04-07T07:28:14.391Z,31.60
2019-04-07T07:30:42.821Z,34.07
2019-04-07T07:33:11.266Z,30.87
2019-04-07T07:35:39.836Z,34.17
2019-04-07T07:38:09.212Z,36.00
2019-04-07T07:40:38.523Z,39.20
2019-04-07T07:43:06.992Z,36.03
2019-04-07T07:45:36.197Z,35.97
2019-04-07T07:48:05.362Z,38.73
2019-04-07T07:50:36.782Z,37.07
2019-04-07T07:53:04.674Z,35.73
2019-04-07T07:55:36.501Z,38.90
2019-04-07T07:58:04.063Z,37.70
2019-04-07T08:00:37.160Z,35.60
2019-04-07T08:03:02.643Z,32.60
2019-04-07T08:05:33.336Z,32.97
2019-04-07T08:10:50.735Z,32.33
2019-04-07T08:13:20.076Z,33.57
2019-04-07T08:15:49.334Z,32.60
2019-04-07T08:18:19.833Z,29.33
2019-04-07T08:20:48.986Z,33.70
2019-04-07T08:23:17.519Z,32.73
2019-04-07T08:25:46.102Z,33.67
2019-04-07T08:28:14.729Z,31.73
2019-04-07T08:30:46.629Z,29.20
2019-04-07T08:33:13.595Z,30.20
2019-04-07T08:35:42.645Z,28.57
2019-04-07T08:38:12.147Z,28.73
2019-04-07T08:40:40.817Z,31.47
2019-04-07T08:43:09.218Z,25.70
2019-04-07T08:45:38.144Z,27.90
2019-04-07T08:48:07.322Z,28.57
2019-04-07T08:50:36.330Z,26.27
2019-04-07T08:53:04.786Z,28.77
2019-04-07T08:55:33.566Z,27.77
2019-04-07T08:58:04.296Z,22.33
2019-04-07T09:00:34.091Z,23.90
2019-04-07T09:03:07.814Z,22.57
2019-04-07T09:05:33.429Z,22.30
2019-04-07T09:08:05.534Z,24.90
2019-04-07T09:10:37.214Z,24.53
2019-04-07T09:13:08.347Z,26.83
2019-04-07T09:15:43.606Z,27.43
2019-04-07T09:18:21.224Z,25.67
2019-04-07T09:21:07.835Z,24.70
2019-04-07T09:23:40.508Z,24.77
2019-04-07T09:26:21.140Z,24.30
2019-04-07T09:28:55.805Z,26.30
2019-04-07T09:31:26.034Z,21.50
2019-04-07T09:33:59.851Z,21.30
2019-04-07T09:36:32.322Z,23.03
2019-04-07T09:39:03.837Z,25.00
2019-04-07T09:41:33.879Z,22.00
2019-04-07T09:44:20.923Z,25.43
2019-04-07T09:46:57.481Z,19.43
2019-04-07T09:49:48.136Z,20.70
2019-04-07T09:52:22.114Z,20.37
2019-04-07T09:54:58.628Z,20.87
2019-04-07T09:57:41.189Z,20.33
2019-04-07T10:00:16.015Z,18.27
2019-04-07T10:02:55.012Z,20.77
2019-04-07T10:05:41.382Z,23.47
2019-04-07T10:08:31.578Z,18.73
2019-04-07T10:11:17.772Z,18.47
2019-04-07T10:14:01.189Z,19.10
2019-04-07T10:16:49.528Z,17.87
2019-04-07T10:19:28.359Z,16.00
2019-04-07T10:22:04.240Z,19.00
2019-04-07T10:24:34.630Z,17.63
2019-04-07T10:27:21.367Z,19.37
2019-04-07T10:29:52.459Z,15.10
2019-04-07T10:32:35.122Z,14.83
2019-04-07T10:35:08.344Z,15.17
2019-04-07T10:37:50.230Z,14.50
2019-04-07T10:40:34.683Z,14.93
2019-04-07T10:43:07.524Z,15.73
2019-04-07T10:45:38.279Z,15.73
2019-04-07T10:48:25.807Z,13.90
2019-04-07T10:50:59.119Z,13.80
2019-04-07T10:53:45.834Z,21.83
2019-04-07T10:56:18.766Z,17.57
2019-04-07T10:59:01.847Z,18.93
2019-04-07T11:01:37.918Z,14.73
2019-04-07T11:04:25.569Z,15.80
2019-04-07T11:07:01.961Z,16.23
2019-04-07T11:09:35.415Z,17.43
2019-04-07T11:12:15.452Z,17.03
2019-04-07T11:14:45.661Z,19.60
2019-04-07T11:17:25.390Z,19.60
2019-04-07T11:19:55.523Z,15.23
2019-04-07T11:22:41.928Z,13.33
2019-04-07T11:25:12.973Z,15.93
2019-04-07T11:27:46.787Z,15.63
2019-04-07T11:30:18.064Z,15.40
2019-04-07T11:32:57.593Z,15.50
2019-04-07T11:35:29.869Z,14.27
2019-04-07T11:38:02.706Z,13.63
2019-04-07T11:40:50.146Z,15.50
2019-04-07T11:43:32.973Z,16.00
2019-04-07T11:46:03.481Z,15.97
2019-04-07T11:48:50.416Z,16.90
2019-04-07T11:51:32.571Z,16.83
2019-04-07T11:54:20.718Z,15.30
2019-04-07T11:57:05.542Z,15.67
2019-04-07T11:59:41.467Z,15.10
2019-04-07T12:02:12.548Z,13.50
2019-04-07T12:04:45.711Z,14.17
2019-04-07T12:07:25.144Z,13.00
2019-04-07T12:10:01.353Z,13.17
2019-04-07T12:12:43.823Z,13.63
2019-04-07T12:15:26.943Z,12.53
2019-04-07T12:18:18.531Z,10.20
2019-04-07T12:20:46.177Z,9.03
2019-04-07T12:23:21.784Z,11.20
2019-04-07T12:25:57.651Z,12.13
2019-04-07T12:28:37.569Z,13.67
2019-04-07T12:31:08.538Z,13.37
2019-04-07T12:33:47.426Z,12.03
2019-04-07T12:36:31.800Z,15.03
2019-04-07T12:39:20.202Z,12.80
2019-04-07T12:41:59.463Z,13.90
2019-04-07T12:44:30.042Z,14.10
2019-04-07T12:47:17.082Z,13.23
2019-04-07T12:49:50.156Z,9.20
2019-04-07T12:52:36.664Z,9.47
2019-04-07T12:55:15.381Z,10.77
2019-04-07T12:57:48.582Z,10.20
2019-04-07T13:00:52.298Z,10.23
2019-04-07T13:03:23.012Z,10.03
2019-04-07T13:05:53.066Z,14.27
2019-04-07T13:08:32.300Z,11.43
2019-04-07T13:11:25.428Z,13.37
2019-04-07T13:14:05.285Z,12.80
2019-04-07T13:16:42.741Z,10.93
2019-04-07T13:19:15.648Z,11.50
2019-04-07T13:21:46.848Z,8.63
2019-04-07T13:24:34.102Z,6.67
2019-04-07T13:27:14.152Z,7.37
2019-04-07T13:29:49.971Z,5.97
2019-04-07T13:32:20.693Z,8.03
2019-04-07T13:35:06.070Z,7.60
2019-04-07T13:37:41.276Z,6.07
2019-04-07T13:40:13.096Z,7.07
2019-04-07T13:42:43.034Z,6.10
2019-04-07T13:45:30.150Z,6.10
2019-04-07T13:48:00.351Z,6.47
2019-04-07T13:50:33.287Z,7.30
2019-04-07T13:53:20.702Z,8.03
2019-04-07T13:56:25.482Z,7.03
2019-04-07T13:59:04.006Z,6.40
2019-04-07T14:01:35.782Z,6.87
2019-04-07T14:04:05.795Z,5.77
2019-04-07T14:06:36.221Z,10.10
2019-04-07T14:09:09.317Z,7.10
2019-04-07T14:11:52.511Z,6.50
2019-04-07T14:14:12.317Z,9.07
2019-04-07T14:16:42.355Z,7.20
2019-04-07T14:19:18.868Z,7.47
2019-04-07T14:22:00.981Z,6.17
2019-04-07T14:24:37.212Z,6.93
2019-04-07T14:27:10.019Z,5.80
2019-04-07T14:29:40.578Z,6.27
2019-04-07T14:32:27.399Z,6.73
2019-04-07T14:34:57.690Z,5.93
2019-04-07T14:37:30.765Z,6.63
2019-04-07T14:40:17.141Z,7.37
2019-04-07T14:42:53.359Z,7.60
2019-04-07T14:45:32.701Z,5.73
2019-04-07T14:48:08.732Z,5.73
2019-04-07T14:50:55.967Z,6.07
2019-04-07T14:53:30.265Z,6.00
2019-04-07T14:56:16.496Z,6.50
2019-04-07T14:58:53.859Z,5.43
2019-04-07T15:01:26.531Z,5.00
2019-04-07T15:03:55.686Z,7.17
2019-04-07T15:06:29.212Z,6.67
2019-04-07T15:08:56.431Z,9.23
2019-04-07T15:11:26.987Z,6.37
2019-04-07T15:13:57.810Z,7.77
2019-04-07T15:16:26.354Z,8.03
2019-04-07T15:18:55.114Z,8.40
2019-04-07T15:21:25.353Z,8.00
2019-04-07T15:23:53.875Z,7.60
2019-04-07T15:26:22.285Z,10.40
2019-04-07T15:28:50.678Z,7.37
2019-04-07T15:31:20.477Z,7.93
2019-04-07T15:33:49.777Z,7.53
2019-04-07T15:36:19.573Z,9.33
2019-04-07T15:38:49.474Z,8.97
2019-04-07T15:41:19.520Z,7.53
2019-04-07T15:43:48.834Z,7.53
2019-04-07T15:46:19.178Z,8.33
2019-04-07T15:48:48.429Z,7.90
2019-04-07T15:51:17.546Z,9.57
2019-04-07T15:53:50.357Z,8.37
2019-04-07T15:56:18.352Z,8.80
2019-04-07T15:58:46.390Z,7.40
2019-04-07T16:01:15.025Z,7.60
2019-04-07T16:03:47.783Z,8.73
2019-04-07T16:06:16.166Z,7.37
2019-04-07T16:08:44.639Z,8.20
2019-04-07T16:11:13.131Z,8.93
2019-04-07T16:13:42.276Z,10.37
2019-04-07T16:16:11.328Z,9.47
2019-04-07T16:18:42.945Z,7.93
2019-04-07T16:21:10.987Z,8.30
2019-04-07T16:23:40.495Z,8.83
2019-04-07T16:26:10.704Z,10.97
2019-04-07T16:28:43.255Z,7.70
2019-04-07T16:31:10.119Z,12.33
2019-04-07T16:33:38.831Z,10.40
2019-04-07T16:36:08.625Z,7.17
2019-04-07T16:38:37.193Z,9.50
2019-04-07T16:41:06.467Z,9.20
2019-04-07T16:43:37.650Z,11.53
2019-04-07T16:46:05.601Z,8.90
2019-04-07T16:48:38.658Z,8.63
2019-04-07T16:51:04.318Z,10.30
2019-04-07T16:53:36.482Z,10.07
2019-04-07T16:56:02.844Z,9.93
2019-04-07T16:58:35.393Z,11.47
2019-04-07T17:01:01.405Z,11.03
2019-04-07T17:03:29.790Z,9.07
2019-04-07T17:06:00.227Z,9.50
2019-04-07T17:08:28.775Z,8.30
2019-04-07T17:10:59.446Z,9.43
2019-04-07T17:13:37.078Z,11.17
2019-04-07T17:15:59.292Z,13.10
2019-04-07T17:18:42.928Z,10.57
2019-04-07T17:21:15.655Z,13.10
2019-04-07T17:23:45.490Z,9.33
2019-04-07T17:26:14.635Z,13.47
2019-04-07T17:28:45.185Z,14.23
2019-04-07T17:31:14.182Z,18.27
2019-04-07T17:33:42.860Z,12.93
2019-04-07T17:36:16.219Z,13.43
2019-04-07T17:38:49.862Z,12.30
2019-04-07T17:41:18.557Z,13.90
2019-04-07T17:43:53.455Z,12.23
2019-04-07T17:46:26.212Z,13.43
2019-04-07T17:48:59.786Z,12.80
2019-04-07T17:51:37.911Z,12.13
2019-04-07T17:54:10.476Z,11.90
2019-04-07T17:56:41.654Z,10.90
2019-04-07T17:59:15.275Z,12.60
2019-04-07T18:01:56.765Z,11.67
2019-04-07T18:04:27.252Z,12.20
2019-04-07T18:07:02.086Z,11.10
2019-04-07T18:09:29.818Z,12.63
2019-04-07T18:12:16.239Z,12.80
2019-04-07T18:14:56.991Z,13.43
2019-04-07T18:17:26.383Z,14.40
2019-04-07T18:20:05.257Z,15.73
2019-04-07T18:22:51.673Z,16.83
2019-04-07T18:25:39.677Z,13.93
2019-04-07T18:28:26.204Z,14.47
2019-04-07T18:31:13.223Z,17.20
2019-04-07T18:33:55.691Z,16.50
2019-04-07T18:36:43.925Z,17.37
2019-04-07T18:39:17.373Z,17.47
2019-04-07T18:42:06.651Z,20.10
2019-04-07T18:44:51.036Z,17.40
2019-04-07T18:47:31.471Z,19.43
2019-04-07T18:50:17.082Z,16.70
2019-04-07T18:53:03.700Z,18.00
2019-04-07T18:55:52.524Z,19.60
2019-04-07T18:58:39.768Z,17.50
2019-04-07T19:01:25.423Z,16.37
2019-04-07T19:04:01.302Z,15.60
2019-04-07T19:06:36.500Z,16.73
2019-04-07T19:09:12.181Z,14.53
2019-04-07T19:12:05.834Z,17.77
2019-04-07T19:14:50.230Z,13.97
2019-04-07T19:17:27.124Z,14.83
2019-04-07T19:20:10.873Z,16.70
2019-04-07T19:22:41.043Z,15.50
2019-04-07T19:25:20.348Z,16.77
2019-04-07T19:28:09.318Z,13.87
2019-04-07T19:30:46.151Z,11.30
2019-04-07T19:33:30.651Z,14.63
2019-04-07T19:36:10.303Z,11.77
2019-04-07T19:38:54.328Z,13.80
2019-04-07T19:41:24.482Z,14.93
2019-04-07T19:47:03.070Z,13.20
2019-04-07T19:49:51.303Z,12.50
2019-04-07T19:52:21.625Z,13.07
2019-04-07T19:55:08.095Z,13.60
2019-04-07T19:57:53.269Z,15.57
2019-04-07T20:00:26.341Z,15.57
2019-04-07T20:02:58.269Z,14.67
2019-04-07T20:05:44.328Z,13.13
2019-04-07T20:08:19.077Z,11.60
2019-04-07T20:10:52.343Z,12.33
2019-04-07T20:13:40.909Z,12.47
2019-04-07T20:16:19.941Z,11.43
2019-04-07T20:18:50.024Z,12.10
2019-04-07T20:21:35.057Z,11.97
2019-04-07T20:24:13.186Z,11.07
2019-04-07T20:26:43.355Z,10.27
2019-04-07T20:29:19.473Z,12.50
2019-04-07T20:31:51.583Z,9.13
2019-04-07T20:34:25.233Z,11.40
2019-04-07T20:36:58.119Z,8.50
2019-04-07T20:39:31.933Z,11.00
2019-04-07T20:42:05.953Z,9.77
2019-04-07T20:44:38.750Z,11.40
2019-04-07T20:47:08.787Z,9.47
2019-04-07T20:49:42.472Z,9.00
2019-04-07T20:52:17.904Z,9.53
2019-04-07T20:55:07.126Z,10.33
2019-04-07T20:57:51.338Z,7.83
2019-04-07T21:00:22.950Z,10.53
2019-04-07T21:03:09.974Z,7.77
2019-04-07T21:05:27.060Z,6.30
2019-04-07T21:08:13.002Z,8.67
2019-04-07T21:10:52.263Z,7.63
2019-04-07T21:13:27.943Z,8.70
2019-04-07T21:16:10.232Z,7.27
2019-04-07T21:18:40.471Z,9.40
2019-04-07T21:21:20.086Z,9.13
2019-04-07T21:23:53.299Z,6.50
2019-04-07T21:26:27.510Z,7.33
2019-04-07T21:28:58.863Z,7.17
2019-04-07T21:31:29.034Z,6.13
2019-04-07T21:33:59.219Z,8.07
2019-04-07T21:36:30.052Z,7.77
2019-04-07T21:39:00.390Z,7.33
2019-04-07T21:41:43.887Z,7.00
2019-04-07T21:44:11.705Z,6.27
2019-04-07T21:46:58.020Z,7.30
2019-04-07T21:49:35.945Z,7.00
2019-04-07T21:52:06.495Z,7.23
2019-04-07T21:57:19.366Z,6.03
2019-04-07T22:02:57.088Z,6.60
2019-04-07T22:05:39.443Z,5.50
2019-04-07T22:08:17.439Z,5.07
2019-04-07T22:10:45.447Z,6.30
2019-04-07T22:13:14.192Z,4.77
2019-04-07T22:15:48.276Z,6.90
2019-04-07T22:18:13.139Z,7.60
2019-04-07T22:20:41.583Z,5.03
2019-04-07T22:23:10.152Z,4.73
2019-04-07T22:25:52.571Z,6.10
2019-04-07T22:28:21.164Z,5.40
2019-04-07T22:30:52.069Z,6.27
2019-04-07T22:33:25.167Z,4.87
2019-04-07T22:35:51.300Z,4.57
2019-04-07T22:38:23.104Z,5.67
2019-04-07T22:40:50.094Z,6.40
2019-04-07T22:43:18.948Z,7.43
2019-04-07T22:45:58.990Z,4.40
2019-04-07T22:48:22.810Z,5.17
2019-04-07T22:50:49.599Z,4.83
2019-04-07T22:53:24.150Z,5.13
2019-04-07T22:55:48.656Z,5.27
2019-04-07T22:58:18.126Z,4.83
2019-04-07T23:00:46.922Z,5.03
2019-04-07T23:03:15.601Z,5.77
2019-04-07T23:05:44.122Z,4.10
2019-04-07T23:08:12.578Z,4.40
2019-04-07T23:10:40.994Z,4.50
2019-04-07T23:13:09.396Z,5.50
2019-04-07T23:15:44.366Z,4.27
2019-04-07T23:18:07.995Z,6.13
2019-04-07T23:20:36.489Z,4.53
2019-04-07T23:23:05.670Z,4.53
2019-04-07T23:25:34.356Z,5.40
2019-04-07T23:28:02.851Z,5.57
2019-04-07T23:30:31.478Z,5.20
2019-04-07T23:33:00.041Z,4.37
2019-04-07T23:35:28.782Z,3.70
2019-04-07T23:37:57.489Z,4.83
2019-04-07T23:40:25.967Z,5.03
2019-04-07T23:42:55.116Z,9.07
2019-04-07T23:45:23.723Z,8.23
2019-04-07T23:47:52.552Z,8.60
2019-04-07T23:50:21.157Z,10.67
2019-04-07T23:52:49.793Z,8.97
2019-04-07T23:55:18.268Z,8.63
2019-04-07T23:57:46.670Z,8.30
